sensor_id;sensor_type;location;lat;lon;timestamp;pressure;altitude;pressure_sealevel;temperature;humidity
51829;BME280;37881;48.024;8.774;2023-09-12T00:00:06;93728.88;;;16.66;100.00
51829;BME280;37881;48.024;8.774;2023-09-12T00:02:33;93727.22;;;16.68;100.00
51829;BME280;37881;48.024;8.774;2023-09-12T00:05:00;93718.72;;;16.72;100.00
51829;BME280;37881;48.024;8.774;2023-09-12T00:07:26;93719.19;;;16.70;100.00
51829;BME280;37881;48.024;8.774;2023-09-12T00:09:53;93718.28;;;16.64;100.00
51829;BME280;37881;48.024;8.774;2023-09-12T00:12:22;93720.88;;;16.68;100.00
51829;BME280;37881;48.024;8.774;2023-09-12T00:14:50;93713.66;;;16.70;100.00
51829;BME280;37881;48.024;8.774;2023-09-12T00:17:17;93713.81;;;16.67;100.00
51829;BME280;37881;48.024;8.774;2023-09-12T00:19:44;93704.72;;;16.57;100.00
51829;BME280;37881;48.024;8.774;2023-09-12T00:22:11;93709.28;;;16.32;100.00
51829;BME280;37881;48.024;8.774;2023-09-12T00:24:38;93715.09;;;16.16;100.00
51829;BME280;37881;48.024;8.774;2023-09-12T00:27:05;93712.94;;;16.20;100.00
51829;BME280;37881;48.024;8.774;2023-09-12T00:29:32;93707.56;;;16.26;100.00
51829;BME280;37881;48.024;8.774;2023-09-12T00:31:59;93704.78;;;16.26;100.00
51829;BME280;37881;48.024;8.774;2023-09-12T00:34:26;93716.34;;;16.33;100.00
51829;BME280;37881;48.024;8.774;2023-09-12T00:36:52;93706.50;;;16.32;100.00
51829;BME280;37881;48.024;8.774;2023-09-12T00:39:19;93704.50;;;16.33;100.00
51829;BME280;37881;48.024;8.774;2023-09-12T00:41:46;93704.81;;;16.35;100.00
51829;BME280;37881;48.024;8.774;2023-09-12T00:44:13;93705.75;;;16.32;100.00
51829;BME280;37881;48.024;8.774;2023-09-12T00:46:40;93704.19;;;16.31;100.00
51829;BME280;37881;48.024;8.774;2023-09-12T00:49:08;93706.78;;;16.25;100.00
51829;BME280;37881;48.024;8.774;2023-09-12T00:51:36;93701.88;;;16.20;100.00
51829;BME280;37881;48.024;8.774;2023-09-12T00:54:04;93699.56;;;16.18;100.00
51829;BME280;37881;48.024;8.774;2023-09-12T00:56:32;93699.38;;;16.13;100.00
51829;BME280;37881;48.024;8.774;2023-09-12T00:58:59;93701.84;;;16.11;100.00
51829;BME280;37881;48.024;8.774;2023-09-12T01:01:26;93703.06;;;16.10;100.00
51829;BME280;37881;48.024;8.774;2023-09-12T01:03:54;93700.88;;;16.05;100.00
51829;BME280;37881;48.024;8.774;2023-09-12T01:06:23;93697.19;;;15.98;100.00
51829;BME280;37881;48.024;8.774;2023-09-12T01:08:52;93707.16;;;15.96;100.00
51829;BME280;37881;48.024;8.774;2023-09-12T01:11:20;93710.69;;;15.96;100.00
51829;BME280;37881;48.024;8.774;2023-09-12T01:13:46;93710.53;;;15.91;100.00
51829;BME280;37881;48.024;8.774;2023-09-12T01:16:13;93712.97;;;15.89;100.00
51829;BME280;37881;48.024;8.774;2023-09-12T01:18:40;93714.94;;;15.79;100.00
51829;BME280;37881;48.024;8.774;2023-09-12T01:26:37;93720.16;;;15.77;100.00
51829;BME280;37881;48.024;8.774;2023-09-12T01:29:07;93712.63;;;15.77;100.00
51829;BME280;37881;48.024;8.774;2023-09-12T01:31:37;93717.84;;;15.75;100.00
51829;BME280;37881;48.024;8.774;2023-09-12T01:34:10;93712.41;;;15.72;100.00
51829;BME280;37881;48.024;8.774;2023-09-12T01:36:37;93711.22;;;15.73;100.00
51829;BME280;37881;48.024;8.774;2023-09-12T01:39:04;93710.69;;;15.65;100.00
51829;BME280;37881;48.024;8.774;2023-09-12T01:41:34;93711.00;;;15.67;100.00
51829;BME280;37881;48.024;8.774;2023-09-12T01:44:02;93703.16;;;15.66;100.00
51829;BME280;37881;48.024;8.774;2023-09-12T01:46:31;93705.94;;;15.66;100.00
51829;BME280;37881;48.024;8.774;2023-09-12T01:48:59;93709.91;;;15.65;100.00
51829;BME280;37881;48.024;8.774;2023-09-12T01:51:27;93707.91;;;15.65;100.00
51829;BME280;37881;48.024;8.774;2023-09-12T01:53:55;93712.81;;;15.61;100.00
51829;BME280;37881;48.024;8.774;2023-09-12T01:56:23;93707.16;;;15.33;100.00
51829;BME280;37881;48.024;8.774;2023-09-12T01:58:50;93712.16;;;15.26;100.00
51829;BME280;37881;48.024;8.774;2023-09-12T02:01:17;93705.25;;;15.30;100.00
51829;BME280;37881;48.024;8.774;2023-09-12T02:03:44;93718.31;;;15.30;100.00
51829;BME280;37881;48.024;8.774;2023-09-12T02:06:10;93714.78;;;15.29;100.00
51829;BME280;37881;48.024;8.774;2023-09-12T02:08:37;93715.56;;;15.30;100.00
51829;BME280;37881;48.024;8.774;2023-09-12T02:11:04;93715.13;;;15.31;100.00
51829;BME280;37881;48.024;8.774;2023-09-12T02:13:31;93715.28;;;15.37;100.00
51829;BME280;37881;48.024;8.774;2023-09-12T02:16:01;93720.06;;;15.36;100.00
51829;BME280;37881;48.024;8.774;2023-09-12T02:18:29;93720.81;;;15.37;100.00
51829;BME280;37881;48.024;8.774;2023-09-12T02:20:58;93718.03;;;15.37;100.00
51829;BME280;37881;48.024;8.774;2023-09-12T02:23:25;93720.50;;;15.35;100.00
51829;BME280;37881;48.024;8.774;2023-09-12T02:25:51;93709.72;;;15.28;100.00
51829;BME280;37881;48.024;8.774;2023-09-12T02:28:18;93718.31;;;15.30;100.00
51829;BME280;37881;48.024;8.774;2023-09-12T02:30:45;93711.25;;;15.29;100.00
51829;BME280;37881;48.024;8.774;2023-09-12T02:33:11;93712.78;;;15.30;100.00
51829;BME280;37881;48.024;8.774;2023-09-12T02:35:38;93710.34;;;15.32;100.00
51829;BME280;37881;48.024;8.774;2023-09-12T02:38:05;93710.59;;;15.25;100.00
51829;BME280;37881;48.024;8.774;2023-09-12T02:40:32;93714.41;;;15.18;100.00
51829;BME280;37881;48.024;8.774;2023-09-12T02:42:59;93710.34;;;15.10;100.00
51829;BME280;37881;48.024;8.774;2023-09-12T02:45:26;93710.81;;;15.08;100.00
51829;BME280;37881;48.024;8.774;2023-09-12T02:47:52;93706.31;;;15.02;100.00
51829;BME280;37881;48.024;8.774;2023-09-12T02:50:19;93710.91;;;15.05;100.00
51829;BME280;37881;48.024;8.774;2023-09-12T02:52:46;93705.88;;;15.03;100.00
51829;BME280;37881;48.024;8.774;2023-09-12T02:55:12;93703.22;;;15.00;100.00
51829;BME280;37881;48.024;8.774;2023-09-12T02:57:39;93707.06;;;15.02;100.00
51829;BME280;37881;48.024;8.774;2023-09-12T03:00:07;93705.34;;;14.95;100.00
51829;BME280;37881;48.024;8.774;2023-09-12T03:02:35;93711.16;;;14.75;100.00
51829;BME280;37881;48.024;8.774;2023-09-12T03:05:02;93710.09;;;14.60;100.00
51829;BME280;37881;48.024;8.774;2023-09-12T03:07:29;93706.91;;;14.62;100.00
51829;BME280;37881;48.024;8.774;2023-09-12T03:09:56;93707.00;;;14.71;100.00
51829;BME280;37881;48.024;8.774;2023-09-12T03:12:23;93702.44;;;14.77;100.00
51829;BME280;37881;48.024;8.774;2023-09-12T03:14:50;93698.66;;;14.84;100.00
51829;BME280;37881;48.024;8.774;2023-09-12T03:17:16;93687.00;;;14.89;100.00
51829;BME280;37881;48.024;8.774;2023-09-12T03:19:43;93691.66;;;14.92;100.00
51829;BME280;37881;48.024;8.774;2023-09-12T03:22:10;93692.47;;;14.80;100.00
51829;BME280;37881;48.024;8.774;2023-09-12T03:24:37;93699.84;;;14.83;100.00
51829;BME280;37881;48.024;8.774;2023-09-12T03:27:03;93693.44;;;14.86;100.00
51829;BME280;37881;48.024;8.774;2023-09-12T03:29:31;93701.41;;;14.84;100.00
51829;BME280;37881;48.024;8.774;2023-09-12T03:31:58;93697.41;;;14.85;100.00
51829;BME280;37881;48.024;8.774;2023-09-12T03:34:25;93706.19;;;14.70;100.00
51829;BME280;37881;48.024;8.774;2023-09-12T03:36:51;93697.16;;;14.70;100.00
51829;BME280;37881;48.024;8.774;2023-09-12T03:39:18;93704.22;;;14.71;100.00
51829;BME280;37881;48.024;8.774;2023-09-12T03:41:45;93697.91;;;14.70;100.00
51829;BME280;37881;48.024;8.774;2023-09-12T03:44:11;93699.72;;;14.64;100.00
51829;BME280;37881;48.024;8.774;2023-09-12T03:46:38;93699.19;;;14.56;100.00
51829;BME280;37881;48.024;8.774;2023-09-12T03:49:05;93700.03;;;14.66;100.00
51829;BME280;37881;48.024;8.774;2023-09-12T03:51:33;93696.63;;;14.62;100.00
51829;BME280;37881;48.024;8.774;2023-09-12T03:54:01;93699.72;;;14.64;100.00
51829;BME280;37881;48.024;8.774;2023-09-12T03:56:29;93698.94;;;14.64;100.00
51829;BME280;37881;48.024;8.774;2023-09-12T03:58:55;93695.75;;;14.65;100.00
51829;BME280;37881;48.024;8.774;2023-09-12T04:01:24;93692.66;;;14.63;100.00
51829;BME280;37881;48.024;8.774;2023-09-12T04:03:51;93693.94;;;14.71;100.00
51829;BME280;37881;48.024;8.774;2023-09-12T04:06:18;93693.19;;;14.71;100.00
51829;BME280;37881;48.024;8.774;2023-09-12T04:08:45;93690.34;;;14.62;100.00
51829;BME280;37881;48.024;8.774;2023-09-12T04:11:11;93693.56;;;14.47;100.00
51829;BME280;37881;48.024;8.774;2023-09-12T04:13:38;93698.22;;;14.37;100.00
51829;BME280;37881;48.024;8.774;2023-09-12T04:16:05;93695.03;;;14.26;100.00
51829;BME280;37881;48.024;8.774;2023-09-12T04:18:32;93691.06;;;14.27;100.00
51829;BME280;37881;48.024;8.774;2023-09-12T04:20:58;93696.34;;;14.34;100.00
51829;BME280;37881;48.024;8.774;2023-09-12T04:23:25;93695.69;;;14.30;100.00
51829;BME280;37881;48.024;8.774;2023-09-12T04:25:52;93695.50;;;14.25;100.00
51829;BME280;37881;48.024;8.774;2023-09-12T04:28:18;93694.59;;;14.28;100.00
51829;BME280;37881;48.024;8.774;2023-09-12T04:30:45;93697.13;;;14.35;100.00
51829;BME280;37881;48.024;8.774;2023-09-12T04:33:13;93693.91;;;14.36;100.00
51829;BME280;37881;48.024;8.774;2023-09-12T04:35:39;93693.47;;;14.38;100.00
51829;BME280;37881;48.024;8.774;2023-09-12T04:38:06;93696.34;;;14.34;100.00
51829;BME280;37881;48.024;8.774;2023-09-12T04:40:33;93692.59;;;14.28;100.00
51829;BME280;37881;48.024;8.774;2023-09-12T04:43:00;93691.84;;;14.15;100.00
51829;BME280;37881;48.024;8.774;2023-09-12T04:45:26;93703.34;;;14.13;100.00
51829;BME280;37881;48.024;8.774;2023-09-12T04:47:53;93702.31;;;14.20;100.00
51829;BME280;37881;48.024;8.774;2023-09-12T04:50:20;93698.91;;;14.29;100.00
51829;BME280;37881;48.024;8.774;2023-09-12T04:52:47;93691.28;;;14.33;100.00
51829;BME280;37881;48.024;8.774;2023-09-12T04:55:13;93697.88;;;14.35;100.00
51829;BME280;37881;48.024;8.774;2023-09-12T04:57:40;93695.06;;;14.13;100.00
51829;BME280;37881;48.024;8.774;2023-09-12T05:00:08;93697.28;;;14.18;100.00
51829;BME280;37881;48.024;8.774;2023-09-12T05:02:37;93699.00;;;14.25;100.00
51829;BME280;37881;48.024;8.774;2023-09-12T05:05:04;93700.31;;;14.33;100.00
51829;BME280;37881;48.024;8.774;2023-09-12T05:07:31;93701.75;;;14.38;100.00
51829;BME280;37881;48.024;8.774;2023-09-12T05:09:58;93706.22;;;14.23;100.00
51829;BME280;37881;48.024;8.774;2023-09-12T05:12:25;93708.50;;;14.24;100.00
51829;BME280;37881;48.024;8.774;2023-09-12T05:14:51;93714.88;;;14.34;100.00
51829;BME280;37881;48.024;8.774;2023-09-12T05:17:18;93712.78;;;14.51;100.00
51829;BME280;37881;48.024;8.774;2023-09-12T05:19:45;93704.50;;;14.51;100.00
51829;BME280;37881;48.024;8.774;2023-09-12T05:22:12;93704.81;;;14.53;100.00
51829;BME280;37881;48.024;8.774;2023-09-12T05:24:38;93703.81;;;14.60;100.00
51829;BME280;37881;48.024;8.774;2023-09-12T05:27:05;93701.22;;;14.78;100.00
51829;BME280;37881;48.024;8.774;2023-09-12T05:29:32;93692.63;;;14.98;100.00
51829;BME280;37881;48.024;8.774;2023-09-12T05:31:59;93708.47;;;15.07;100.00
51829;BME280;37881;48.024;8.774;2023-09-12T05:34:26;93708.81;;;15.09;100.00
51829;BME280;37881;48.024;8.774;2023-09-12T05:36:53;93717.34;;;14.80;100.00
51829;BME280;37881;48.024;8.774;2023-09-12T05:39:20;93715.03;;;14.78;100.00
51829;BME280;37881;48.024;8.774;2023-09-12T05:41:46;93721.06;;;14.86;100.00
51829;BME280;37881;48.024;8.774;2023-09-12T05:44:13;93712.16;;;15.04;100.00
51829;BME280;37881;48.024;8.774;2023-09-12T05:46:47;93714.41;;;15.40;100.00
51829;BME280;37881;48.024;8.774;2023-09-12T05:49:15;93709.03;;;15.68;100.00
51829;BME280;37881;48.024;8.774;2023-09-12T05:51:42;93710.00;;;15.74;100.00
51829;BME280;37881;48.024;8.774;2023-09-12T05:54:09;93710.66;;;15.87;100.00
51829;BME280;37881;48.024;8.774;2023-09-12T05:56:36;93707.81;;;16.09;100.00
51829;BME280;37881;48.024;8.774;2023-09-12T05:59:03;93707.72;;;16.22;100.00
51829;BME280;37881;48.024;8.774;2023-09-12T06:01:30;93707.38;;;16.11;100.00
51829;BME280;37881;48.024;8.774;2023-09-12T06:03:56;93716.28;;;15.74;100.00
51829;BME280;37881;48.024;8.774;2023-09-12T06:06:23;93716.81;;;15.60;100.00
51829;BME280;37881;48.024;8.774;2023-09-12T06:08:50;93714.03;;;15.82;100.00
51829;BME280;37881;48.024;8.774;2023-09-12T06:11:18;93709.22;;;15.73;100.00
51829;BME280;37881;48.024;8.774;2023-09-12T06:13:44;93717.38;;;15.77;100.00
51829;BME280;37881;48.024;8.774;2023-09-12T06:16:11;93723.28;;;15.88;100.00
51829;BME280;37881;48.024;8.774;2023-09-12T06:18:38;93717.00;;;15.97;100.00
51829;BME280;37881;48.024;8.774;2023-09-12T06:21:04;93729.88;;;15.91;100.00
51829;BME280;37881;48.024;8.774;2023-09-12T06:23:35;93729.38;;;15.83;100.00
51829;BME280;37881;48.024;8.774;2023-09-12T06:26:02;93729.59;;;15.67;100.00
51829;BME280;37881;48.024;8.774;2023-09-12T06:28:30;93729.16;;;15.68;100.00
51829;BME280;37881;48.024;8.774;2023-09-12T06:30:57;93735.53;;;15.78;100.00
51829;BME280;37881;48.024;8.774;2023-09-12T06:33:25;93731.69;;;16.16;100.00
51829;BME280;37881;48.024;8.774;2023-09-12T06:35:53;93731.16;;;15.99;100.00
51829;BME280;37881;48.024;8.774;2023-09-12T06:38:21;93729.81;;;16.04;100.00
51829;BME280;37881;48.024;8.774;2023-09-12T06:40:48;93739.50;;;16.58;100.00
51829;BME280;37881;48.024;8.774;2023-09-12T06:43:15;93736.50;;;17.21;100.00
51829;BME280;37881;48.024;8.774;2023-09-12T06:45:42;93726.41;;;17.69;100.00
51829;BME280;37881;48.024;8.774;2023-09-12T06:48:09;93737.50;;;17.60;100.00
51829;BME280;37881;48.024;8.774;2023-09-12T06:50:36;93727.00;;;17.73;100.00
51829;BME280;37881;48.024;8.774;2023-09-12T06:53:05;93727.72;;;18.02;100.00
51829;BME280;37881;48.024;8.774;2023-09-12T06:55:33;93732.72;;;18.22;100.00
51829;BME280;37881;48.024;8.774;2023-09-12T06:58:00;93727.56;;;18.63;100.00
51829;BME280;37881;48.024;8.774;2023-09-12T07:00:27;93718.72;;;19.51;100.00
51829;BME280;37881;48.024;8.774;2023-09-12T07:02:54;93723.38;;;19.84;100.00
51829;BME280;37881;48.024;8.774;2023-09-12T07:05:21;93733.69;;;19.00;100.00
51829;BME280;37881;48.024;8.774;2023-09-12T07:07:48;93729.47;;;19.44;100.00
51829;BME280;37881;48.024;8.774;2023-09-12T07:10:15;93722.69;;;20.40;100.00
51829;BME280;37881;48.024;8.774;2023-09-12T07:12:50;93719.66;;;20.58;100.00
51829;BME280;37881;48.024;8.774;2023-09-12T07:15:17;93723.59;;;22.27;100.00
51829;BME280;37881;48.024;8.774;2023-09-12T07:17:44;93718.09;;;25.16;100.00
51829;BME280;37881;48.024;8.774;2023-09-12T07:20:11;93719.91;;;26.44;88.73
51829;BME280;37881;48.024;8.774;2023-09-12T07:22:39;93716.38;;;26.38;84.68
51829;BME280;37881;48.024;8.774;2023-09-12T07:25:07;93719.56;;;26.59;84.08
51829;BME280;37881;48.024;8.774;2023-09-12T07:27:35;93718.06;;;27.07;82.51
51829;BME280;37881;48.024;8.774;2023-09-12T07:30:04;93715.81;;;28.97;73.90
51829;BME280;37881;48.024;8.774;2023-09-12T07:32:31;93718.38;;;30.99;65.41
51829;BME280;37881;48.024;8.774;2023-09-12T07:34:58;93710.97;;;32.88;57.07
51829;BME280;37881;48.024;8.774;2023-09-12T07:37:25;93715.44;;;33.53;52.66
51829;BME280;37881;48.024;8.774;2023-09-12T07:39:51;93726.53;;;30.61;57.46
51829;BME280;37881;48.024;8.774;2023-09-12T07:42:22;93730.13;;;29.18;65.14
51829;BME280;37881;48.024;8.774;2023-09-12T07:44:49;93725.13;;;30.96;61.15
51829;BME280;37881;48.024;8.774;2023-09-12T07:47:17;93732.84;;;32.34;56.04
51829;BME280;37881;48.024;8.774;2023-09-12T07:49:43;93726.47;;;32.64;53.90
51829;BME280;37881;48.024;8.774;2023-09-12T07:52:10;93718.72;;;33.18;50.56
51829;BME280;37881;48.024;8.774;2023-09-12T07:54:37;93725.91;;;32.81;50.89
51829;BME280;37881;48.024;8.774;2023-09-12T07:57:04;93730.19;;;31.84;55.26
51829;BME280;37881;48.024;8.774;2023-09-12T07:59:30;93729.31;;;32.64;53.29
51829;BME280;37881;48.024;8.774;2023-09-12T08:01:57;93732.56;;;34.41;47.72
51829;BME280;37881;48.024;8.774;2023-09-12T08:04:24;93725.81;;;34.54;46.47
51829;BME280;37881;48.024;8.774;2023-09-12T08:06:51;93724.72;;;34.50;45.38
51829;BME280;37881;48.024;8.774;2023-09-12T08:12:21;93722.19;;;35.12;44.81
51829;BME280;37881;48.024;8.774;2023-09-12T08:14:48;93724.59;;;35.40;44.09
51829;BME280;37881;48.024;8.774;2023-09-12T08:17:15;93730.56;;;36.67;42.83
51829;BME280;37881;48.024;8.774;2023-09-12T08:19:42;93730.25;;;36.45;42.69
51829;BME280;37881;48.024;8.774;2023-09-12T08:22:10;93732.78;;;35.96;43.31
51829;BME280;37881;48.024;8.774;2023-09-12T08:24:37;93732.56;;;34.74;46.49
51829;BME280;37881;48.024;8.774;2023-09-12T08:27:06;93731.59;;;32.81;49.79
51829;BME280;37881;48.024;8.774;2023-09-12T08:29:33;93723.19;;;33.68;48.55
51829;BME280;37881;48.024;8.774;2023-09-12T08:32:00;93720.34;;;33.52;48.19
51829;BME280;37881;48.024;8.774;2023-09-12T08:34:27;93714.03;;;34.58;47.62
51829;BME280;37881;48.024;8.774;2023-09-12T08:36:54;93711.78;;;35.84;43.17
51829;BME280;37881;48.024;8.774;2023-09-12T08:39:25;93716.00;;;36.28;42.60
51829;BME280;37881;48.024;8.774;2023-09-12T08:41:53;93711.53;;;36.98;39.85
51829;BME280;37881;48.024;8.774;2023-09-12T08:44:21;93712.09;;;38.70;37.59
51829;BME280;37881;48.024;8.774;2023-09-12T08:46:48;93709.63;;;38.06;37.08
51829;BME280;37881;48.024;8.774;2023-09-12T08:49:15;93707.03;;;38.40;35.78
51829;BME280;37881;48.024;8.774;2023-09-12T08:51:43;93704.44;;;38.94;35.31
51829;BME280;37881;48.024;8.774;2023-09-12T08:54:11;93704.09;;;38.69;34.75
51829;BME280;37881;48.024;8.774;2023-09-12T08:56:40;93708.88;;;38.06;35.09
51829;BME280;37881;48.024;8.774;2023-09-12T08:59:08;93714.22;;;36.59;37.40
51829;BME280;37881;48.024;8.774;2023-09-12T09:01:37;93713.94;;;36.38;38.55
51829;BME280;37881;48.024;8.774;2023-09-12T09:04:04;93709.88;;;36.31;38.39
51829;BME280;37881;48.024;8.774;2023-09-12T09:06:31;93708.56;;;35.63;39.10
51829;BME280;37881;48.024;8.774;2023-09-12T09:09:02;93708.81;;;35.39;40.25
51829;BME280;37881;48.024;8.774;2023-09-12T09:11:30;93705.38;;;34.40;42.38
51829;BME280;37881;48.024;8.774;2023-09-12T09:13:57;93711.94;;;35.09;42.90
51829;BME280;37881;48.024;8.774;2023-09-12T09:16:24;93703.78;;;35.65;40.57
51829;BME280;37881;48.024;8.774;2023-09-12T09:18:54;93706.09;;;36.11;40.77
51829;BME280;37881;48.024;8.774;2023-09-12T09:21:23;93712.06;;;36.06;40.51
51829;BME280;37881;48.024;8.774;2023-09-12T09:23:54;93717.97;;;35.13;41.44
51829;BME280;37881;48.024;8.774;2023-09-12T09:26:22;93701.44;;;35.54;40.85
51829;BME280;37881;48.024;8.774;2023-09-12T09:29:06;93704.63;;;36.37;39.02
51829;BME280;37881;48.024;8.774;2023-09-12T09:31:34;93687.72;;;37.33;37.48
51829;BME280;37881;48.024;8.774;2023-09-12T09:34:02;93688.81;;;37.86;36.18
51829;BME280;37881;48.024;8.774;2023-09-12T09:36:31;93683.25;;;38.08;35.73
51829;BME280;37881;48.024;8.774;2023-09-12T09:38:58;93692.41;;;38.35;35.83
51829;BME280;37881;48.024;8.774;2023-09-12T09:41:26;93696.03;;;37.58;36.33
51829;BME280;37881;48.024;8.774;2023-09-12T09:43:53;93693.59;;;37.25;36.10
51829;BME280;37881;48.024;8.774;2023-09-12T09:46:20;93694.97;;;38.02;35.99
51829;BME280;37881;48.024;8.774;2023-09-12T09:48:50;93690.31;;;37.02;35.65
51829;BME280;37881;48.024;8.774;2023-09-12T09:51:18;93689.66;;;37.30;35.64
51829;BME280;37881;48.024;8.774;2023-09-12T09:53:45;93685.25;;;39.28;33.35
51829;BME280;37881;48.024;8.774;2023-09-12T09:56:16;93670.00;;;39.90;32.52
51829;BME280;37881;48.024;8.774;2023-09-12T09:58:56;93670.47;;;40.65;30.86
51829;BME280;37881;48.024;8.774;2023-09-12T10:01:28;93676.22;;;40.53;31.29
51829;BME280;37881;48.024;8.774;2023-09-12T10:03:59;93673.22;;;39.85;30.71
51829;BME280;37881;48.024;8.774;2023-09-12T10:06:28;93666.81;;;41.59;28.21
51829;BME280;37881;48.024;8.774;2023-09-12T10:08:58;93656.31;;;42.53;27.87
51829;BME280;37881;48.024;8.774;2023-09-12T10:11:28;93662.47;;;42.21;27.61
51829;BME280;37881;48.024;8.774;2023-09-12T10:13:57;93660.47;;;43.17;26.56
51829;BME280;37881;48.024;8.774;2023-09-12T10:16:40;93657.28;;;39.93;29.32
51829;BME280;37881;48.024;8.774;2023-09-12T10:19:16;93657.59;;;41.37;28.02
51829;BME280;37881;48.024;8.774;2023-09-12T10:24:48;93657.53;;;39.43;30.21
51829;BME280;37881;48.024;8.774;2023-09-12T10:27:18;93652.22;;;39.18;29.54
51829;BME280;37881;48.024;8.774;2023-09-12T10:29:45;93651.13;;;39.87;29.05
51829;BME280;37881;48.024;8.774;2023-09-12T10:32:14;93646.97;;;39.79;28.93
51829;BME280;37881;48.024;8.774;2023-09-12T10:34:44;93659.09;;;40.56;27.81
51829;BME280;37881;48.024;8.774;2023-09-12T10:37:15;93651.41;;;39.70;28.93
51829;BME280;37881;48.024;8.774;2023-09-12T10:39:45;93640.59;;;39.80;29.13
51829;BME280;37881;48.024;8.774;2023-09-12T10:42:13;93647.47;;;39.53;29.59
51829;BME280;37881;48.024;8.774;2023-09-12T10:44:40;93645.19;;;39.09;29.62
51829;BME280;37881;48.024;8.774;2023-09-12T10:47:07;93642.59;;;39.56;28.99
51829;BME280;37881;48.024;8.774;2023-09-12T10:49:36;93647.13;;;40.26;28.35
51829;BME280;37881;48.024;8.774;2023-09-12T10:52:04;93644.81;;;40.58;27.74
51829;BME280;37881;48.024;8.774;2023-09-12T10:54:38;93646.16;;;39.66;28.35
51829;BME280;37881;48.024;8.774;2023-09-12T10:57:07;93637.97;;;38.26;28.99
51829;BME280;37881;48.024;8.774;2023-09-12T10:59:34;93642.41;;;36.92;30.83
51829;BME280;37881;48.024;8.774;2023-09-12T11:02:36;93646.69;;;37.01;32.25
51829;BME280;37881;48.024;8.774;2023-09-12T11:05:04;93633.97;;;36.48;31.38
51829;BME280;37881;48.024;8.774;2023-09-12T11:12:48;93623.22;;;35.22;33.38
51829;BME280;37881;48.024;8.774;2023-09-12T11:15:17;93628.22;;;34.96;33.65
51829;BME280;37881;48.024;8.774;2023-09-12T11:17:46;93624.09;;;33.81;35.06
51829;BME280;37881;48.024;8.774;2023-09-12T11:20:14;93617.66;;;34.06;36.24
51829;BME280;37881;48.024;8.774;2023-09-12T11:22:43;93632.72;;;34.82;34.22
51829;BME280;37881;48.024;8.774;2023-09-12T11:25:18;93625.88;;;33.54;36.38
51829;BME280;37881;48.024;8.774;2023-09-12T11:30:22;93626.59;;;30.53;43.40
51829;BME280;37881;48.024;8.774;2023-09-12T11:32:51;93628.22;;;30.06;45.70
51829;BME280;37881;48.024;8.774;2023-09-12T11:35:25;93614.75;;;30.62;46.38
51829;BME280;37881;48.024;8.774;2023-09-12T11:37:54;93608.22;;;30.04;46.47
51829;BME280;37881;48.024;8.774;2023-09-12T11:40:26;93618.09;;;30.11;46.85
51829;BME280;37881;48.024;8.774;2023-09-12T11:43:17;93614.06;;;29.85;48.61
51829;BME280;37881;48.024;8.774;2023-09-12T11:45:44;93614.91;;;30.14;48.84
51829;BME280;37881;48.024;8.774;2023-09-12T11:48:11;93610.53;;;31.13;46.38
51829;BME280;37881;48.024;8.774;2023-09-12T11:50:38;93604.28;;;30.78;47.74
51829;BME280;37881;48.024;8.774;2023-09-12T11:53:11;93607.00;;;31.20;46.85
51829;BME280;37881;48.024;8.774;2023-09-12T11:55:46;93593.66;;;30.99;46.76
51829;BME280;37881;48.024;8.774;2023-09-12T11:58:15;93597.69;;;31.48;46.47
51829;BME280;37881;48.024;8.774;2023-09-12T12:00:54;93607.81;;;30.71;48.25
51829;BME280;37881;48.024;8.774;2023-09-12T12:03:22;93598.69;;;30.57;47.14
51829;BME280;37881;48.024;8.774;2023-09-12T12:05:50;93605.63;;;30.84;48.47
51829;BME280;37881;48.024;8.774;2023-09-12T12:08:18;93599.13;;;30.69;47.27
51829;BME280;37881;48.024;8.774;2023-09-12T12:10:51;93596.13;;;30.45;48.47
51829;BME280;37881;48.024;8.774;2023-09-12T12:13:20;93606.09;;;30.39;48.28
51829;BME280;37881;48.024;8.774;2023-09-12T12:15:47;93588.91;;;30.37;49.23
51829;BME280;37881;48.024;8.774;2023-09-12T12:18:14;93590.22;;;30.64;49.35
51829;BME280;37881;48.024;8.774;2023-09-12T12:20:41;93590.69;;;30.05;49.64
51829;BME280;37881;48.024;8.774;2023-09-12T12:23:08;93590.06;;;30.20;50.12
51829;BME280;37881;48.024;8.774;2023-09-12T12:25:35;93600.75;;;29.72;51.91
51829;BME280;37881;48.024;8.774;2023-09-12T12:28:03;93581.19;;;29.61;50.71
51829;BME280;37881;48.024;8.774;2023-09-12T12:30:32;93585.09;;;29.71;50.40
51829;BME280;37881;48.024;8.774;2023-09-12T12:33:01;93581.81;;;29.67;52.63
51829;BME280;37881;48.024;8.774;2023-09-12T12:35:36;93572.13;;;29.76;54.59
51829;BME280;37881;48.024;8.774;2023-09-12T12:38:19;93576.66;;;30.00;53.24
51829;BME280;37881;48.024;8.774;2023-09-12T12:40:47;93575.31;;;29.93;51.99
51829;BME280;37881;48.024;8.774;2023-09-12T12:43:20;93565.38;;;29.65;50.51
51829;BME280;37881;48.024;8.774;2023-09-12T12:45:54;93567.69;;;30.30;50.27
51829;BME280;37881;48.024;8.774;2023-09-12T12:48:35;93564.13;;;30.58;51.81
51829;BME280;37881;48.024;8.774;2023-09-12T12:51:33;93560.19;;;30.61;50.27
51829;BME280;37881;48.024;8.774;2023-09-12T12:54:04;93557.16;;;30.59;50.21
51829;BME280;37881;48.024;8.774;2023-09-12T12:56:32;93550.69;;;30.51;50.74
51829;BME280;37881;48.024;8.774;2023-09-12T12:59:00;93544.91;;;30.36;50.42
51829;BME280;37881;48.024;8.774;2023-09-12T13:01:30;93546.25;;;29.72;52.93
51829;BME280;37881;48.024;8.774;2023-09-12T13:03:57;93539.56;;;29.82;52.77
51829;BME280;37881;48.024;8.774;2023-09-12T13:06:24;93536.25;;;30.13;52.37
51829;BME280;37881;48.024;8.774;2023-09-12T13:08:52;93536.78;;;29.69;54.44
51829;BME280;37881;48.024;8.774;2023-09-12T13:11:19;93536.34;;;29.65;55.44
51829;BME280;37881;48.024;8.774;2023-09-12T13:13:47;93525.91;;;29.73;54.56
51829;BME280;37881;48.024;8.774;2023-09-12T13:16:17;93523.50;;;29.22;56.97
51829;BME280;37881;48.024;8.774;2023-09-12T13:18:44;93524.53;;;29.32;58.31